ADDS METAR Data INFO
IDs: Format: Raw Decoded Include TAF

Data at: 1045 UTC 19 Oct 2017

PAWS 190956Z AUTO 23003KT 10SM CLR M06/M11 A2920 RMK AO2 SLP902 T10561106 FZRANO
PAWS 190856Z AUTO VRB05KT 10SM CLR M04/M11 A2919 RMK AO2 SLP898 T10441106 400331078 51004 FZRANO
PAWS 190756Z AUTO 24004KT 10SM CLR M04/M11 A2918 RMK AO2 SLP897 T10391106 FZRANO
PAWS 190656Z AUTO 24003KT 10SM CLR M03/M11 A2918 RMK AO2 SLP895 T10281106 FZRANO
PAWS 190556Z AUTO 23004KT 10SM BKN060 M02/M09 A2917 RMK AO2 SLP894 T10221089 10033 21022 53001 FZRANO
PAWS 190356Z AUTO 28003KT 10SM OVC060 00/M09 A2917 RMK AO2 SLP892 T00001094 FZRANO
PAWS 190256Z AUTO 29003KT 10SM OVC055 02/M11 A2917 RMK AO2 SLP893 T00171111 55004 FZRANO
PAWS 190056Z AUTO 00000KT 10SM BKN044 03/M07 A2918 RMK AO2 SLP893 T00281072
PAWS 182356Z AUTO 18004KT 10SM CLR 02/M06 A2919 RMK AO2 SLP897 T00171056 10022 21067 58010 FZRANO
PAWS 182156Z AUTO VRB04KT 10SM CLR 01/M06 A2921 RMK AO2 SLP905 T00111061 FZRANO
PAWS 182056Z AUTO 29004KT 10SM CLR 01/M06 A2921 RMK AO2 SLP908 T00061061 58007 FZRANO
PAWS 181856Z AUTO 00000KT 10SM CLR M05/M07 A2923 RMK AO2 SLP913 T10501067 FZRANO
PAWS 181756Z AUTO 00000KT 10SM CLR M07/M08 A2923 RMK AO2 SLP915 60000 T10671078 11017 21078 56005 FZRANO
PAWS 181656Z AUTO 00000KT 10SM CLR M07/M08 A2924 RMK AO2 SLP915 T10721083 FZRANO
PAWS 181556Z AUTO 26003KT 10SM CLR M07/M07 A2924 RMK AO2 SLP917 T10671072 FZRANO
PAWS 181456Z AUTO VRB03KT 10SM OVC080 M05/M07 A2925 RMK AO2 SLP920 60000 T10501067 56014 FZRANO
PAWS 181356Z AUTO 24003KT 10SM FEW075 OVC090 M04/M06 A2926 RMK AO2 SLP923 T10391061 FZRANO
PAWS 181156Z AUTO 28003KT 9SM -SN OVC060 M02/M05 A2929 RMK AO2 RAE02UPB02E14B38E40SNB40 SLP935 P0000 60000 T10171050 10017 21022 58012 FZRANO
PAWS 180956Z AUTO 36004KT 10SM OVC060 01/M06 A2932 RMK AO2 SLP944 T00111061 FZRANO
PAWS 180756Z AUTO 04009KT 10SM FEW049 OVC060 01/M07 A2933 RMK AO2 SLP947 T00111067 FZRANO
PAWS 180656Z AUTO 07004KT 10SM OVC065 01/M06 A2934 RMK AO2 SLP948 T00061061 FZRANO
PAWS 180456Z AUTO 04003KT 10SM FEW080 M01/M05 A2933 RMK AO2 SLP949 T10061050 FZRANO
PAWS 180356Z AUTO 00000KT 10SM CLR M01/M04 A2933 RMK AO2 SLP949 T10111039 FZRANO
PAWS 180256Z AUTO 00000KT 10SM CLR 00/M04 A2933 RMK AO2 SLP949 T00001039 55006 FZRANO
PAWS 180056Z AUTO 09003KT 10SM SCT045 03/M05 A2934 RMK AO2 SLP949 T00331050
PAWS 172356Z AUTO 00000KT 10SM BKN055 03/M04 A2935 RMK AO2 SLP955 T00281044 10028 21050 58019
PAWS 172256Z AUTO 04005KT 10SM SCT050 SCT075 03/M05 A2938 RMK AO2 SLP963 T00281050